Time;durP1;ratioP1;P1;durP2;ratioP2;P2;SDS_P1;SDS_P2;PMS_P1;PMS_P2;Temp;Humidity;BMP_temperature;BMP_pressure;BME280_temperature;BME280_humidity;BME280_pressure;Samples;Min_cycle;Max_cycle;Signal;HPM_P1;HPM_P2
2022/11/03 00:01:41;;;;;;;8.52;2.53;;;;;;;10.18;67.63;99194.34;5028185;28;20054;-81
2022/11/03 00:04:09;;;;;;;12.93;2.38;;;;;;;10.21;67.83;99180.53;5016277;28;20033;-81
2022/11/03 00:06:35;;;;;;;10.50;2.97;;;;;;;10.19;67.52;99174.63;5026072;28;20068;-81
2022/11/03 00:09:03;;;;;;;5.63;2.58;;;;;;;10.02;67.62;99165.75;5017540;28;20037;-81
2022/11/03 00:11:32;;;;;;;5.65;2.60;;;;;;;9.84;67.54;99163.22;5012099;28;20029;-81
2022/11/03 00:13:58;;;;;;;8.68;2.50;;;;;;;9.97;68.17;99176.28;5014710;28;20026;-81
2022/11/03 00:16:23;;;;;;;7.63;3.10;;;;;;;9.94;67.92;99158.09;5012004;28;20405;-82
2022/11/03 00:18:50;;;;;;;7.43;2.50;;;;;;;9.99;67.57;99158.19;5023096;28;20033;-82
2022/11/03 00:21:16;;;;;;;7.13;2.33;;;;;;;10.08;67.97;99162.13;5008902;28;20120;-82
2022/11/03 00:23:43;;;;;;;10.90;2.67;;;;;;;10.04;67.48;99168.16;5023830;28;20116;-82
2022/11/03 00:26:12;;;;;;;9.60;2.55;;;;;;;10.08;67.85;99171.97;5004910;28;20018;-82
2022/11/03 00:28:39;;;;;;;3.97;2.60;;;;;;;9.94;67.28;99138.66;5022820;28;20071;-82
2022/11/03 00:31:11;;;;;;;5.75;2.33;;;;;;;9.95;67.89;99148.25;5027379;28;20034;-82
2022/11/03 00:33:37;;;;;;;12.45;2.78;;;;;;;10.17;67.33;99165.25;5005679;28;20470;-82
2022/11/03 00:36:04;;;;;;;4.40;2.83;;;;;;;10.04;67.53;99160.16;5004190;28;20373;-82
2022/11/03 00:38:30;;;;;;;8.55;2.53;;;;;;;9.91;67.69;99144.44;5018450;28;20041;-82
2022/11/03 00:40:57;;;;;;;6.10;2.25;;;;;;;9.85;67.29;99124.84;5007485;28;20048;-82
2022/11/03 00:43:23;;;;;;;7.25;2.63;;;;;;;9.94;67.68;99143.97;5001838;28;20128;-81
2022/11/03 00:45:50;;;;;;;6.55;2.30;;;;;;;9.97;67.90;99162.97;4983498;28;20052;-82
2022/11/03 00:48:28;;;;;;;12.70;3.13;;;;;;;9.79;67.63;99125.78;5007865;28;20029;-82
2022/11/03 00:50:54;;;;;;;8.88;2.30;;;;;;;9.89;67.96;99143.88;5011056;28;20029;-82
2022/11/03 00:53:19;;;;;;;7.90;2.20;;;;;;;9.91;67.89;99137.25;5027901;28;20025;-82
2022/11/03 00:55:50;;;;;;;6.55;2.72;;;;;;;9.97;68.11;99138.97;5013261;28;20074;-82
2022/11/03 00:58:16;;;;;;;9.90;2.78;;;;;;;10.00;68.09;99124.34;5032048;28;20493;-82
2022/11/03 01:00:41;;;;;;;9.73;2.80;;;;;;;9.65;68.56;99103.94;5011450;28;20116;-82
2022/11/03 01:03:06;;;;;;;10.15;2.75;;;;;;;9.95;68.49;99121.59;5029177;28;20409;-82
2022/11/03 01:08:16;;;;;;;6.93;2.72;;;;;;;9.72;68.52;99123.25;5025045;28;20452;-82
2022/11/03 01:11:42;;;;;;;6.80;2.75;;;;;;;9.66;69.17;99128.72;5012504;28;20053;-82
2022/11/03 01:13:27;;;;;;;9.93;2.58;;;;;;;9.67;69.05;99114.38;5029211;28;20043;-82
2022/11/03 01:16:00;;;;;;;6.63;2.83;;;;;;;9.68;68.87;99107.97;5013967;28;20025;-82
2022/11/03 01:18:25;;;;;;;7.90;2.67;;;;;;;9.83;68.66;99113.63;5001098;28;20029;-82
2022/11/03 01:20:57;;;;;;;10.38;2.50;;;;;;;9.77;68.75;99111.91;5013523;28;20033;-82
2022/11/03 01:23:23;;;;;;;8.65;3.28;;;;;;;9.68;68.85;99098.13;5013343;28;20038;-81
2022/11/03 01:25:48;;;;;;;6.05;2.65;;;;;;;9.83;68.46;99111.75;5025669;28;20026;-81
2022/11/03 01:28:14;;;;;;;4.03;1.85;;;;;;;9.57;69.02;99083.00;5025503;28;20033;-82
2022/11/03 01:30:39;;;;;;;6.40;2.97;;;;;;;9.73;69.11;99097.44;5026211;28;20463;-82
2022/11/03 01:33:05;;;;;;;8.40;3.22;;;;;;;9.90;68.42;99097.47;5027279;28;20026;-81
2022/11/03 01:35:33;;;;;;;7.55;2.60;;;;;;;9.87;68.11;99082.78;5034917;28;20112;-82
2022/11/03 01:37:59;;;;;;;5.40;2.75;;;;;;;9.65;68.94;99079.16;5010377;28;20087;-81
2022/11/03 01:40:24;;;;;;;7.63;2.97;;;;;;;9.83;68.42;99068.28;5027263;28;20037;-82
2022/11/03 01:42:49;;;;;;;10.13;2.63;;;;;;;9.86;68.42;99061.69;5029692;28;20030;-82
2022/11/03 01:45:15;;;;;;;12.57;3.28;;;;;;;9.96;68.45;99072.56;4995778;28;20088;-81
2022/11/03 01:47:42;;;;;;;9.23;2.42;;;;;;;9.88;68.54;99057.72;5022678;28;20061;-81
2022/11/03 01:50:17;;;;;;;12.45;3.10;;;;;;;9.79;68.10;99029.84;5028908;28;20083;-81
2022/11/03 01:52:55;;;;;;;6.82;2.50;;;;;;;9.84;68.21;99029.94;5024192;28;20024;-81
2022/11/03 01:55:25;;;;;;;8.25;2.60;;;;;;;9.92;68.24;99024.22;5026544;28;20547;-81
2022/11/03 01:57:54;;;;;;;9.35;3.10;;;;;;;10.03;68.33;99033.19;5008821;28;20381;-81
2022/11/03 02:00:20;;;;;;;7.28;2.38;;;;;;;10.04;68.44;99026.81;5020881;28;20033;-81
2022/11/03 02:02:47;;;;;;;5.80;2.75;;;;;;;9.99;68.69;99030.22;5028417;28;20437;-81
2022/11/03 02:05:15;;;;;;;10.13;2.85;;;;;;;9.90;68.10;99020.97;5026212;28;20083;-81
2022/11/03 02:07:56;;;;;;;6.43;2.60;;;;;;;10.00;68.34;98996.38;5014745;28;20035;-81
2022/11/03 02:10:23;;;;;;;6.70;2.67;;;;;;;10.07;68.24;99005.81;5023857;28;20460;-81
2022/11/03 02:12:49;;;;;;;11.18;2.78;;;;;;;10.10;67.99;99012.53;5028061;28;20025;-81
2022/11/03 02:15:17;;;;;;;6.32;2.95;;;;;;;9.95;67.54;99006.94;5008261;28;20052;-81
2022/11/03 02:17:46;;;;;;;8.93;2.38;;;;;;;10.02;67.68;99012.94;5024954;28;20060;-81
2022/11/03 02:20:20;;;;;;;9.02;4.82;;;;;;;10.08;68.08;99012.78;5026336;28;20039;-81
2022/11/03 02:23:00;;;;;;;8.18;2.70;;;;;;;9.90;67.90;99025.50;5025028;28;20030;-81
2022/11/03 02:25:34;;;;;;;8.18;2.83;;;;;;;9.91;67.89;99008.47;5023506;28;20061;-81
2022/11/03 02:28:01;;;;;;;4.53;2.13;;;;;;;9.91;67.53;99001.28;5028306;28;20036;-81
2022/11/03 02:30:33;;;;;;;3.92;2.22;;;;;;;9.92;68.10;98996.72;5009545;28;20061;-81
2022/11/03 02:33:25;;;;;;;9.80;3.17;;;;;;;9.60;67.68;98994.59;5023823;28;20029;-82
2022/11/03 02:35:57;;;;;;;9.32;3.10;;;;;;;9.65;68.65;98992.00;4988415;28;20499;-81
2022/11/03 02:38:27;;;;;;;12.68;3.10;;;;;;;9.64;68.49;98982.41;5002234;28;20762;-81
2022/11/03 02:40:57;;;;;;;6.60;3.15;;;;;;;9.68;68.74;98985.38;5027743;28;20029;-81
2022/11/03 02:43:23;;;;;;;6.55;3.38;;;;;;;9.72;68.23;98990.00;5011452;28;20029;-81
2022/11/03 02:45:50;;;;;;;6.38;2.75;;;;;;;9.73;68.72;98988.97;5028085;28;20401;-81
2022/11/03 02:48:17;;;;;;;5.25;2.85;;;;;;;9.76;67.92;99009.78;5009383;28;20148;-81
2022/11/03 02:50:43;;;;;;;6.97;2.75;;;;;;;9.67;68.39;98986.44;4991755;28;20032;-81
2022/11/03 02:53:13;;;;;;;5.78;2.60;;;;;;;9.82;68.68;98997.38;5006688;28;20036;-81
2022/11/03 02:55:47;;;;;;;8.20;3.10;;;;;;;9.83;68.06;98983.81;5028899;28;20041;-81
2022/11/03 02:58:37;;;;;;;10.52;2.70;;;;;;;9.84;68.47;98987.28;5021659;28;20060;-81
2022/11/03 03:01:15;;;;;;;6.57;2.45;;;;;;;9.82;68.18;98986.72;5017825;28;20220;-81
2022/11/03 03:03:47;;;;;;;7.30;3.00;;;;;;;9.86;68.23;98987.03;5009904;28;20025;-81
2022/11/03 03:06:27;;;;;;;10.30;2.70;;;;;;;9.81;68.54;98974.44;5004554;28;20037;-82
2022/11/03 03:08:58;;;;;;;11.85;3.35;;;;;;;9.67;68.15;98975.78;5022708;28;20056;-81
2022/11/03 03:11:38;;;;;;;8.35;3.25;;;;;;;9.80;68.29;98983.50;5025209;28;20022;-81
2022/11/03 03:14:15;;;;;;;12.93;3.30;;;;;;;9.74;68.38;98971.13;5023490;28;20035;-81
2022/11/03 03:16:56;;;;;;;8.65;3.10;;;;;;;9.86;67.75;98977.19;5018274;28;20497;-81
2022/11/03 03:19:33;;;;;;;4.53;2.45;;;;;;;9.78;67.83;98959.72;5026097;28;20037;-81
2022/11/03 03:22:08;;;;;;;7.30;3.25;;;;;;;9.72;67.95;98955.34;5021204;28;20082;-81
2022/11/03 03:25:00;;;;;;;6.70;3.03;;;;;;;9.78;68.22;98948.28;5026019;28;20118;-81
2022/11/03 03:27:30;;;;;;;9.77;3.20;;;;;;;9.66;67.63;98947.50;5025224;28;20701;-82
2022/11/03 03:30:00;;;;;;;7.50;2.67;;;;;;;9.72;68.25;98957.19;5026573;28;20040;-82
2022/11/03 03:32:30;;;;;;;7.63;2.83;;;;;;;9.68;68.24;98959.56;5010915;28;20136;-82
2022/11/03 03:34:58;;;;;;;5.03;2.95;;;;;;;9.67;67.90;98939.28;5026092;28;20029;-82
2022/11/03 03:37:27;;;;;;;7.32;2.53;;;;;;;9.62;68.41;98938.38;5024327;28;20044;-82
2022/11/03 03:39:59;;;;;;;5.78;2.85;;;;;;;9.70;68.41;98969.97;4995801;28;20045;-82
2022/11/03 03:42:28;;;;;;;5.82;3.90;;;;;;;9.62;67.96;98951.72;5002246;28;20056;-81
2022/11/03 03:44:55;;;;;;;10.85;3.03;;;;;;;9.66;68.25;98960.84;5004241;28;20540;-81
2022/11/03 03:47:28;;;;;;;11.05;3.15;;;;;;;9.70;68.10;98960.13;5003994;28;20033;-82
2022/11/03 03:49:54;;;;;;;5.32;3.00;;;;;;;9.70;68.05;98967.28;5002715;28;20041;-82
2022/11/03 03:52:20;;;;;;;6.85;2.92;;;;;;;9.61;68.92;98934.13;5008670;28;20044;-82
2022/11/03 03:54:46;;;;;;;9.43;2.83;;;;;;;9.58;68.36;98934.59;5005680;28;20063;-82
2022/11/03 03:57:15;;;;;;;9.57;2.70;;;;;;;9.47;69.17;98930.13;5022772;28;20052;-82
2022/11/03 03:59:41;;;;;;;7.57;3.25;;;;;;;9.49;69.07;98941.34;5005597;28;20057;-82
2022/11/03 04:02:06;;;;;;;7.43;3.17;;;;;;;9.38;69.04;98915.56;5020363;28;20120;-81
2022/11/03 04:04:32;;;;;;;8.00;2.75;;;;;;;9.49;68.92;98933.34;4991743;28;20572;-82
2022/11/03 04:09:41;;;;;;;8.45;2.78;;;;;;;9.44;69.20;98922.59;5023765;28;20043;-81
2022/11/03 04:23:08;;;;;;;5.15;2.60;;;;;;;9.58;69.21;98903.44;5027735;28;20032;-81
2022/11/03 04:25:33;;;;;;;8.23;3.20;;;;;;;9.65;68.90;98895.28;5027147;28;20030;-81
2022/11/03 04:27:59;;;;;;;8.05;3.00;;;;;;;9.58;68.93;98883.97;5024852;28;20087;-81
2022/11/03 04:30:25;;;;;;;8.65;3.53;;;;;;;9.44;68.67;98864.00;5029867;28;20033;-81
2022/11/03 04:32:51;;;;;;;7.22;3.00;;;;;;;9.70;68.39;98887.34;5016799;28;20025;-81
2022/11/03 04:35:20;;;;;;;14.60;3.15;;;;;;;9.68;69.00;98892.13;5027553;28;20037;-81
2022/11/03 04:37:53;;;;;;;7.93;3.10;;;;;;;9.56;68.32;98875.41;5030626;28;20034;-82
2022/11/03 04:40:18;;;;;;;8.07;3.00;;;;;;;9.50;69.26;98871.81;4993918;28;20440;-81
2022/11/03 04:42:44;;;;;;;6.50;2.83;;;;;;;9.53;68.84;98881.19;4999078;28;20087;-81
2022/11/03 04:45:33;;;;;;;9.30;3.25;;;;;;;9.61;68.46;98867.50;5028736;28;20033;-81
2022/11/03 04:48:02;;;;;;;9.32;4.20;;;;;;;9.51;68.43;98865.47;5018447;28;20130;-81
2022/11/03 04:50:27;;;;;;;3.38;2.55;;;;;;;9.53;68.98;98860.69;4992644;28;20509;-82
2022/11/03 04:53:08;;;;;;;8.77;3.13;;;;;;;9.59;69.13;98867.72;5011075;28;20025;-82
2022/11/03 04:55:34;;;;;;;7.32;3.30;;;;;;;9.55;69.12;98847.13;5028932;28;20048;-82
2022/11/03 04:58:06;;;;;;;4.60;2.78;;;;;;;9.66;68.37;98859.56;5011206;28;20033;-82
2022/11/03 05:00:31;;;;;;;7.55;3.13;;;;;;;9.56;68.51;98851.41;5021647;28;20389;-81
2022/11/03 05:02:56;;;;;;;5.75;3.00;;;;;;;9.62;69.30;98847.78;5027213;28;20045;-82
2022/11/03 05:05:24;;;;;;;8.82;3.10;;;;;;;9.62;68.60;98858.44;5009538;28;20034;-82
2022/11/03 05:07:52;;;;;;;8.18;2.80;;;;;;;9.68;68.46;98860.94;5010255;28;20030;-82
2022/11/03 05:10:22;;;;;;;10.15;3.33;;;;;;;9.51;69.07;98846.81;5000746;28;20030;-81
2022/11/03 05:12:48;;;;;;;7.60;2.83;;;;;;;9.46;68.79;98827.25;5025938;28;20017;-82
2022/11/03 05:15:27;;;;;;;9.50;3.40;;;;;;;9.63;68.43;98836.09;5023466;28;20037;-81
2022/11/03 05:17:54;;;;;;;7.40;2.83;;;;;;;9.58;68.94;98846.66;5014226;28;20549;-81
2022/11/03 05:20:36;;;;;;;12.90;3.15;;;;;;;9.47;69.66;98840.34;5010556;28;20061;-82
2022/11/03 05:23:02;;;;;;;8.30;4.22;;;;;;;9.58;68.40;98820.00;5024843;28;20021;-82
2022/11/03 05:25:39;;;;;;;7.22;2.83;;;;;;;9.76;69.11;98847.19;5023886;28;20029;-82
2022/11/03 05:28:33;;;;;;;8.40;3.08;;;;;;;9.60;68.73;98813.38;5012930;28;20706;-81
2022/11/03 05:30:58;;;;;;;8.00;2.75;;;;;;;9.65;69.07;98818.78;5020558;28;20041;-82
2022/11/03 05:33:34;;;;;;;8.27;3.58;;;;;;;9.52;69.03;98813.78;5009265;28;20052;-81
2022/11/03 05:36:04;;;;;;;7.80;2.78;;;;;;;9.44;69.12;98813.38;5006338;28;20117;-81
2022/11/03 05:38:32;;;;;;;9.05;3.58;;;;;;;9.57;69.69;98829.03;5009423;28;20064;-81
2022/11/03 05:40:58;;;;;;;7.15;3.25;;;;;;;9.44;69.10;98818.69;5027396;28;20041;-82
2022/11/03 05:43:26;;;;;;;11.82;3.55;;;;;;;9.51;69.71;98825.50;5009863;28;20045;-81
2022/11/03 05:45:59;;;;;;;5.70;3.15;;;;;;;9.40;70.10;98821.06;5007921;28;20037;-81
2022/11/03 05:48:33;;;;;;;8.45;3.65;;;;;;;9.44;69.45;98813.38;4994840;28;20044;-81
2022/11/03 05:51:01;;;;;;;6.35;2.65;;;;;;;9.51;69.64;98830.81;5010773;28;20068;-82
2022/11/03 05:53:28;;;;;;;7.78;2.85;;;;;;;9.46;69.29;98835.25;5007316;28;20409;-82
2022/11/03 05:55:55;;;;;;;13.25;4.03;;;;;;;9.46;69.79;98832.59;5027963;28;20025;-81
2022/11/03 05:58:31;;;;;;;4.93;2.72;;;;;;;9.60;69.02;98820.56;5005589;28;20117;-82
2022/11/03 06:00:59;;;;;;;5.40;2.88;;;;;;;9.45;69.31;98804.34;5024990;28;20034;-83
2022/11/03 06:03:28;;;;;;;8.70;3.25;;;;;;;9.35;70.28;98809.50;5026779;28;20555;-81
2022/11/03 06:05:55;;;;;;;9.27;3.38;;;;;;;9.58;69.24;98823.47;5029884;28;20061;-81
2022/11/03 06:08:26;;;;;;;8.68;3.25;;;;;;;9.39;70.29;98806.09;5007686;28;20029;-82
2022/11/03 06:10:58;;;;;;;10.02;3.50;;;;;;;9.47;69.82;98813.72;5024933;28;20064;-81
2022/11/03 06:13:28;;;;;;;13.20;3.92;;;;;;;9.41;70.21;98808.53;5026387;28;20031;-81
2022/11/03 06:16:01;;;;;;;4.43;2.75;;;;;;;9.53;69.76;98823.41;5024276;28;20127;-82
2022/11/03 06:18:34;;;;;;;23.05;3.97;;;;;;;9.42;69.85;98810.97;4996844;28;20092;-82
2022/11/03 06:21:11;;;;;;;9.82;3.40;;;;;;;9.53;69.25;98822.59;5007366;28;20411;-83
2022/11/03 06:23:39;;;;;;;4.88;3.22;;;;;;;9.48;70.25;98830.50;5025557;28;20045;-82
2022/11/03 06:26:14;;;;;;;8.00;3.08;;;;;;;9.60;69.60;98825.91;5022917;28;20025;-82
2022/11/03 06:28:42;;;;;;;6.80;3.03;;;;;;;9.59;69.63;98834.94;5026675;28;20120;-82
2022/11/03 06:31:22;;;;;;;5.65;2.63;;;;;;;9.51;69.40;98798.84;5006443;28;20045;-82
2022/11/03 06:33:48;;;;;;;8.27;4.15;;;;;;;9.78;69.49;98826.44;5023025;28;20029;-82
2022/11/03 06:36:34;;;;;;;9.63;3.58;;;;;;;9.69;69.34;98816.44;5034989;28;20036;-81
2022/11/03 06:39:02;;;;;;;8.57;3.00;;;;;;;9.59;69.77;98811.75;5020698;28;20084;-82
2022/11/03 06:41:31;;;;;;;9.50;3.42;;;;;;;9.58;69.67;98804.84;5016922;28;20283;-82
2022/11/03 06:44:00;;;;;;;7.22;3.17;;;;;;;9.69;70.00;98835.09;5008659;28;20039;-82
2022/11/03 06:46:26;;;;;;;10.40;2.78;;;;;;;9.67;69.56;98821.22;5012532;28;20029;-81
2022/11/03 06:48:54;;;;;;;12.95;3.17;;;;;;;9.67;69.66;98829.22;5029337;28;20036;-81
2022/11/03 06:51:29;;;;;;;11.88;3.50;;;;;;;9.48;70.60;98798.53;5012203;28;20033;-82
2022/11/03 06:53:59;;;;;;;7.68;3.50;;;;;;;9.69;70.21;98819.94;4996141;28;20044;-81
2022/11/03 06:56:27;;;;;;;7.32;3.83;;;;;;;9.64;70.68;98808.38;5013684;28;20494;-81
2022/11/03 06:58:54;;;;;;;9.07;4.03;;;;;;;9.73;70.14;98813.06;5027868;28;20451;-81
2022/11/03 07:01:20;;;;;;;6.32;3.25;;;;;;;9.48;70.74;98814.53;5004657;28;20018;-81
2022/11/03 07:03:45;;;;;;;8.15;3.30;;;;;;;9.70;70.46;98810.06;5025557;28;20036;-81
2022/11/03 07:06:26;;;;;;;14.25;3.38;;;;;;;9.83;70.43;98813.19;5023351;28;20159;-82
2022/11/03 07:08:57;;;;;;;13.38;4.40;;;;;;;9.72;70.28;98797.28;5024766;28;20033;-82
2022/11/03 07:11:25;;;;;;;9.65;3.83;;;;;;;9.83;70.04;98812.38;5026079;28;20389;-82
2022/11/03 07:13:54;;;;;;;17.50;3.83;;;;;;;9.60;70.28;98785.94;5028926;28;20116;-82
2022/11/03 07:16:34;;;;;;;7.95;3.10;;;;;;;9.77;70.18;98798.19;5026753;28;20056;-82
2022/11/03 07:19:02;;;;;;;9.07;3.22;;;;;;;9.87;70.73;98804.72;5027138;28;20021;-82
2022/11/03 07:21:36;;;;;;;10.73;3.67;;;;;;;9.87;70.26;98802.06;5008003;28;20025;-81
2022/11/03 07:24:16;;;;;;;6.68;3.25;;;;;;;9.67;70.35;98770.59;5023301;28;20034;-82
2022/11/03 07:26:42;;;;;;;11.25;3.25;;;;;;;9.70;70.25;98778.88;5024538;28;20112;-81
2022/11/03 07:29:15;;;;;;;8.02;3.13;;;;;;;9.89;70.21;98797.28;5006380;28;20120;-81
2022/11/03 07:31:40;;;;;;;6.63;3.60;;;;;;;10.00;69.80;98796.38;5034580;28;20494;-81
2022/11/03 07:34:13;;;;;;;13.10;5.13;;;;;;;10.04;69.74;98786.84;5009132;28;20041;-81
2022/11/03 07:36:38;;;;;;;9.27;2.92;;;;;;;9.90;70.19;98790.88;5010728;28;20485;-82
2022/11/03 07:39:11;;;;;;;10.75;4.07;;;;;;;10.08;70.46;98794.09;5008724;28;20128;-81
2022/11/03 07:41:36;;;;;;;8.45;3.30;;;;;;;10.04;70.41;98773.50;4994572;28;20095;-81
2022/11/03 07:44:02;;;;;;;9.70;4.65;;;;;;;9.99;71.00;98778.75;4975966;28;20146;-81
2022/11/03 07:46:27;;;;;;;8.15;3.10;;;;;;;9.94;71.14;98770.72;4996521;28;20072;-81
2022/11/03 07:48:56;;;;;;;6.70;3.30;;;;;;;10.00;70.86;98770.53;5009568;28;20112;-81
2022/11/03 07:51:23;;;;;;;15.00;3.47;;;;;;;10.06;70.56;98753.53;4993090;28;20358;-82
2022/11/03 07:54:01;;;;;;;6.90;2.92;;;;;;;10.04;70.26;98757.50;5026841;28;20056;-83
2022/11/03 07:56:32;;;;;;;6.30;3.28;;;;;;;10.08;70.95;98751.44;5010110;28;20037;-82
2022/11/03 07:59:15;;;;;;;7.55;3.65;;;;;;;10.12;70.33;98741.09;5010792;28;20413;-82
2022/11/03 08:01:48;;;;;;;8.70;3.33;;;;;;;10.19;70.89;98734.53;5013309;28;20731;-83
2022/11/03 08:04:20;;;;;;;7.28;3.42;;;;;;;10.22;70.83;98731.34;4986663;28;20037;-82
2022/11/03 08:06:45;;;;;;;16.55;4.82;;;;;;;9.80;72.33;98738.25;4991193;28;20037;-82
2022/11/03 08:09:11;;;;;;;9.80;3.67;;;;;;;9.97;71.67;98739.03;5014715;28;20182;-82
2022/11/03 08:11:37;;;;;;;6.53;3.33;;;;;;;9.17;74.76;98722.69;4994465;28;20033;-83
2022/11/03 08:14:02;;;;;;;7.20;3.85;;;;;;;9.32;73.99;98708.78;4995128;28;20156;-82
2022/11/03 08:16:28;;;;;;;11.05;4.68;;;;;;;9.45;73.70;98703.13;4992897;28;20037;-82
2022/11/03 08:18:53;;;;;;;8.73;3.55;;;;;;;9.83;72.21;98703.91;4992959;28;20041;-82
2022/11/03 08:21:18;;;;;;;12.00;3.63;;;;;;;9.65;73.72;98701.53;4992259;28;20044;-82
2022/11/03 08:23:44;;;;;;;10.13;4.00;;;;;;;9.17;75.72;98695.22;4991077;28;20041;-82
2022/11/03 08:26:09;;;;;;;15.20;3.83;;;;;;;9.18;76.17;98718.13;4989111;28;20041;-82
2022/11/03 08:28:35;;;;;;;10.85;3.67;;;;;;;9.01;77.10;98702.97;4978833;28;20068;-83
2022/11/03 08:31:04;;;;;;;12.40;3.75;;;;;;;9.04;76.34;98689.16;4999614;28;20430;-82
2022/11/03 08:33:34;;;;;;;7.20;4.25;;;;;;;9.44;75.29;98698.81;4995856;28;21558;-82
2022/11/03 08:36:00;;;;;;;9.55;4.07;;;;;;;9.04;76.94;98680.41;5012722;28;20041;-83
2022/11/03 08:38:26;;;;;;;10.52;4.28;;;;;;;9.41;75.71;98681.50;5014916;28;22006;-83
2022/11/03 08:40:52;;;;;;;11.15;4.85;;;;;;;9.38;76.39;98697.97;5012170;28;20091;-83
2022/11/03 08:43:18;;;;;;;11.35;5.25;;;;;;;8.77;78.95;98693.53;5008497;28;20041;-83
2022/11/03 08:45:44;;;;;;;10.25;3.60;;;;;;;9.40;76.40;98685.19;5000703;28;20033;-83
2022/11/03 08:48:10;;;;;;;12.20;4.22;;;;;;;9.57;75.91;98677.97;4990297;28;20037;-83
2022/11/03 08:50:35;;;;;;;11.43;4.00;;;;;;;9.35;76.91;98673.69;5012991;28;20071;-83
2022/11/03 08:53:01;;;;;;;11.10;4.30;;;;;;;9.50;76.06;98669.34;5016149;28;20504;-83
2022/11/03 08:55:26;;;;;;;10.48;3.63;;;;;;;9.82;74.96;98659.66;4991037;28;20034;-82
2022/11/03 08:57:51;;;;;;;14.93;4.40;;;;;;;9.60;76.17;98640.19;4994505;28;20037;-82
2022/11/03 09:00:17;;;;;;;11.93;5.00;;;;;;;9.72;74.50;98640.88;4994228;28;20053;-83
2022/11/03 09:02:44;;;;;;;12.05;4.40;;;;;;;9.81;75.24;98658.03;4975364;28;20476;-83
2022/11/03 09:05:11;;;;;;;9.05;4.60;;;;;;;9.52;76.89;98653.91;5013269;28;20033;-83
2022/11/03 09:07:38;;;;;;;14.18;4.85;;;;;;;9.59;76.15;98645.75;4996832;28;20391;-83
2022/11/03 09:10:05;;;;;;;8.98;4.78;;;;;;;9.78;75.60;98650.53;5015128;28;20029;-82
2022/11/03 09:12:30;;;;;;;14.38;6.22;;;;;;;9.62;76.77;98646.06;4995664;28;20497;-82
2022/11/03 09:14:56;;;;;;;9.23;4.55;;;;;;;9.64;76.00;98616.50;4998508;28;20037;-83
2022/11/03 09:17:21;;;;;;;11.90;4.28;;;;;;;10.03;75.06;98635.88;4982248;28;20037;-82
2022/11/03 09:19:46;;;;;;;18.20;5.78;;;;;;;9.33;78.66;98646.44;4993972;28;20036;-82
2022/11/03 09:22:12;;;;;;;11.45;7.10;;;;;;;9.26;78.54;98613.88;4990732;28;20075;-83
2022/11/03 09:24:37;;;;;;;15.02;5.68;;;;;;;9.58;77.68;98638.81;4982008;28;20096;-83
2022/11/03 09:27:03;;;;;;;10.20;5.53;;;;;;;9.34;78.23;98608.94;5013894;28;20061;-82
2022/11/03 09:29:29;;;;;;;10.88;5.05;;;;;;;9.49;77.66;98611.00;5014550;28;21954;-83
2022/11/03 09:31:55;;;;;;;18.10;6.18;;;;;;;9.30;79.29;98597.19;5016788;28;20025;-82
2022/11/03 09:34:20;;;;;;;10.45;4.53;;;;;;;9.63;77.70;98598.94;4996505;28;20048;-82
2022/11/03 09:36:45;;;;;;;9.02;5.40;;;;;;;9.55;77.93;98592.16;4998687;28;20115;-83
2022/11/03 09:39:11;;;;;;;8.73;4.57;;;;;;;9.71;77.62;98617.13;4999822;28;20044;-84
2022/11/03 09:41:36;;;;;;;8.27;4.60;;;;;;;9.75;77.03;98604.94;5014999;28;20033;-82
2022/11/03 09:44:02;;;;;;;15.80;6.47;;;;;;;9.60;78.90;98596.75;4999921;28;20477;-83
2022/11/03 09:46:29;;;;;;;11.93;4.63;;;;;;;10.12;75.89;98592.56;5018668;28;20378;-83
2022/11/03 09:48:55;;;;;;;11.63;6.35;;;;;;;9.59;79.25;98592.47;4993486;28;20068;-83
2022/11/03 09:51:22;;;;;;;8.73;3.72;;;;;;;10.24;76.19;98595.09;4995558;28;20795;-83
2022/11/03 09:53:48;;;;;;;12.40;4.95;;;;;;;10.38;75.49;98590.94;5015863;28;20026;-83
2022/11/03 09:56:18;;;;;;;9.57;4.25;;;;;;;10.49;74.30;98580.13;5016925;28;20025;-83
2022/11/03 09:58:43;;;;;;;14.20;5.47;;;;;;;10.51;74.52;98575.31;5018008;28;20056;-83
2022/11/03 10:01:10;;;;;;;10.75;4.65;;;;;;;10.44;74.83;98561.38;5019613;28;20037;-84
2022/11/03 10:03:37;;;;;;;11.65;6.63;;;;;;;9.92;78.10;98551.53;4979876;28;20044;-84
2022/11/03 10:06:04;;;;;;;13.32;7.20;;;;;;;9.81;79.71;98553.28;4995998;28;20092;-84
2022/11/03 10:08:31;;;;;;;18.25;8.05;;;;;;;9.94;78.62;98547.56;4999116;28;20060;-83
2022/11/03 10:10:58;;;;;;;14.43;4.85;;;;;;;10.41;75.69;98529.09;5018591;28;20037;-83
2022/11/03 10:13:30;;;;;;;10.82;6.65;;;;;;;10.44;76.42;98517.91;5014710;28;20033;-83
2022/11/03 10:16:01;;;;;;;11.38;6.72;;;;;;;10.30;77.13;98527.41;4996949;28;20044;-82
2022/11/03 10:18:27;;;;;;;6.78;4.70;;;;;;;10.69;75.38;98549.31;4995736;28;20724;-83
2022/11/03 10:20:53;;;;;;;13.00;5.45;;;;;;;10.86;74.85;98545.41;5001392;28;20059;-83
2022/11/03 10:23:19;;;;;;;10.70;5.68;;;;;;;10.64;75.70;98538.59;5015684;28;20068;-83
2022/11/03 10:25:45;;;;;;;9.70;4.68;;;;;;;10.89;74.89;98538.75;5015049;28;20532;-82
2022/11/03 10:28:19;;;;;;;11.75;5.53;;;;;;;10.88;74.63;98518.47;5012326;28;20033;-82
2022/11/03 10:30:47;;;;;;;14.75;5.05;;;;;;;10.75;75.50;98535.72;5016807;28;20029;-82
2022/11/03 10:33:33;;;;;;;10.77;4.60;;;;;;;10.80;75.70;98538.44;5012581;28;20025;-82
2022/11/03 10:36:13;;;;;;;8.93;5.85;;;;;;;10.65;76.31;98526.84;5013135;28;20108;-83
2022/11/03 10:38:39;;;;;;;10.15;6.18;;;;;;;10.78;75.66;98500.53;5012782;28;20123;-82
2022/11/03 10:41:25;;;;;;;13.32;6.13;;;;;;;10.77;76.13;98520.25;4995959;28;20033;-82
2022/11/03 10:44:17;;;;;;;18.00;6.55;;;;;;;10.83;75.76;98515.78;4999517;28;20029;-82
2022/11/03 10:47:05;;;;;;;13.77;6.47;;;;;;;10.76;75.56;98491.97;5014458;28;20033;-82
2022/11/03 10:49:34;;;;;;;13.80;6.57;;;;;;;10.98;75.28;98506.00;5001724;28;20592;-83
2022/11/03 10:52:19;;;;;;;10.27;6.05;;;;;;;10.71;75.88;98472.44;5011841;28;20013;-82
2022/11/03 10:54:46;;;;;;;11.93;5.65;;;;;;;11.10;74.53;98489.72;5016600;28;20032;-82
2022/11/03 10:57:12;;;;;;;10.27;4.65;;;;;;;11.16;74.84;98505.53;5012106;28;20032;-82
2022/11/03 10:59:38;;;;;;;9.48;6.28;;;;;;;10.91;76.08;98494.72;4997177;28;20033;-81
2022/11/03 11:02:17;;;;;;;10.63;5.55;;;;;;;10.91;74.99;98478.72;4977591;28;20037;-82
2022/11/03 11:04:44;;;;;;;11.40;4.63;;;;;;;10.87;75.47;98482.16;4988806;28;20037;-81
2022/11/03 11:07:40;;;;;;;11.52;5.18;;;;;;;11.09;75.29;98480.13;5007435;28;20026;-82
2022/11/03 11:10:12;;;;;;;8.18;4.75;;;;;;;11.25;74.88;98469.25;4975365;28;20087;-82
2022/11/03 11:12:37;;;;;;;9.38;5.63;;;;;;;10.76;76.48;98443.94;5005719;28;21790;-81
2022/11/03 11:15:42;;;;;;;8.40;5.57;;;;;;;11.00;75.61;98446.97;4993804;28;20040;-81
2022/11/03 11:18:08;;;;;;;10.23;5.03;;;;;;;11.28;74.61;98457.22;4976914;28;20611;-82
2022/11/03 11:20:40;;;;;;;9.50;5.63;;;;;;;11.03;75.38;98433.88;4974036;28;20524;-81
2022/11/03 11:23:27;;;;;;;9.88;5.47;;;;;;;11.47;73.90;98447.66;5001398;28;20030;-82
2022/11/03 11:26:08;;;;;;;10.10;5.50;;;;;;;11.25;74.79;98447.06;5006611;28;20635;-82
2022/11/03 11:28:34;;;;;;;12.77;5.47;;;;;;;11.20;75.28;98429.13;4989833;28;20119;-82
2022/11/03 11:31:00;;;;;;;11.73;5.22;;;;;;;11.04;75.49;98419.50;5003998;28;20540;-83
2022/11/03 11:33:28;;;;;;;10.82;4.75;;;;;;;11.27;74.75;98410.19;5010629;28;20108;-82
2022/11/03 11:35:53;;;;;;;10.30;4.75;;;;;;;11.43;74.30;98406.50;4997912;28;20045;-83
2022/11/03 11:38:47;;;;;;;10.18;4.80;;;;;;;11.43;74.48;98403.81;5015344;28;20079;-81
2022/11/03 11:41:12;;;;;;;11.18;4.43;;;;;;;11.27;74.51;98383.47;5011406;28;20068;-82
2022/11/03 11:43:37;;;;;;;16.95;6.03;;;;;;;11.45;74.88;98388.31;4973240;28;20438;-82
2022/11/03 11:46:21;;;;;;;8.27;4.97;;;;;;;11.56;74.17;98384.59;4997960;28;20037;-81
2022/11/03 11:48:56;;;;;;;6.85;4.55;;;;;;;11.74;73.86;98381.44;5008894;28;20056;-82
2022/11/03 11:51:23;;;;;;;10.95;5.07;;;;;;;11.62;74.57;98382.75;5011394;28;20033;-82
2022/11/03 11:53:50;;;;;;;6.82;4.47;;;;;;;11.56;73.93;98359.75;5012283;28;20026;-82
2022/11/03 11:56:16;;;;;;;9.68;4.60;;;;;;;11.73;73.55;98353.09;4995889;28;20044;-82
2022/11/03 11:58:48;;;;;;;10.43;3.63;;;;;;;11.98;72.52;98363.78;4990356;28;20084;-81
2022/11/03 12:01:21;;;;;;;9.48;4.45;;;;;;;11.55;74.50;98356.28;5015059;28;20106;-81
2022/11/03 12:03:46;;;;;;;7.95;4.97;;;;;;;11.51;74.57;98343.72;5010543;28;20103;-82
2022/11/03 12:06:13;;;;;;;13.95;5.82;;;;;;;11.30;74.49;98326.84;5007145;28;20041;-82